Time;durP1;ratioP1;P1;durP2;ratioP2;P2;SDS_P1;SDS_P2;PMS_P1;PMS_P2;Temp;Humidity;BMP_temperature;BMP_pressure;BME280_temperature;BME280_humidity;BME280_pressure;Samples;Min_cycle;Max_cycle;Signal;HPM_P1;HPM_P2
2022/11/26 00:00:32;;;;;;;17.98;3.97;;;;;;;9.68;86.79;100903.16;4960882;28;19922;-46
2022/11/26 00:02:58;;;;;;;19.13;3.47;;;;;;;9.70;86.82;100898.09;4967623;28;20051;-45
2022/11/26 00:05:29;;;;;;;13.02;3.88;;;;;;;9.71;86.81;100902.50;4967380;28;20043;-45
2022/11/26 00:07:59;;;;;;;7.85;2.42;;;;;;;9.76;86.77;100905.06;4967703;28;20544;-44
2022/11/26 00:10:28;;;;;;;19.05;4.80;;;;;;;9.80;86.74;100903.22;4967466;28;20331;-48
2022/11/26 00:12:56;;;;;;;13.73;3.40;;;;;;;9.83;86.73;100910.84;4965141;28;20050;-45
2022/11/26 00:15:25;;;;;;;13.82;3.30;;;;;;;9.85;86.77;100894.72;4964317;28;20105;-45
2022/11/26 00:17:52;;;;;;;18.55;2.85;;;;;;;9.86;86.68;100899.13;4963630;28;20425;-47
2022/11/26 00:20:23;;;;;;;21.67;4.45;;;;;;;9.86;86.71;100881.72;4951234;28;20042;-45
2022/11/26 00:22:54;;;;;;;11.60;3.08;;;;;;;9.87;86.55;100872.28;4971175;28;20057;-46
2022/11/26 00:25:24;;;;;;;15.13;3.90;;;;;;;9.88;86.69;100885.75;4970873;28;20042;-45
2022/11/26 00:27:53;;;;;;;16.88;2.83;;;;;;;9.91;86.62;100884.28;4970624;28;20054;-45
2022/11/26 00:30:23;;;;;;;11.75;3.30;;;;;;;9.93;86.51;100879.25;4968366;28;20134;-45
2022/11/26 00:32:52;;;;;;;12.05;2.53;;;;;;;9.96;86.42;100875.78;4958060;28;20446;-45
2022/11/26 00:35:19;;;;;;;6.90;2.70;;;;;;;9.97;86.44;100861.63;4953233;28;20066;-45
2022/11/26 00:37:47;;;;;;;17.77;3.45;;;;;;;9.98;86.43;100868.75;4971015;28;20061;-50
2022/11/26 00:40:23;;;;;;;8.90;2.17;;;;;;;9.97;86.35;100850.56;4970935;28;20469;-45
2022/11/26 00:42:51;;;;;;;17.77;3.40;;;;;;;10.00;86.37;100855.41;4968393;28;20421;-47
2022/11/26 00:45:24;;;;;;;13.10;3.13;;;;;;;10.01;86.17;100851.50;4969792;28;20405;-45
2022/11/26 00:47:52;;;;;;;10.23;2.60;;;;;;;10.04;86.15;100848.06;4970877;28;20046;-45
2022/11/26 00:50:22;;;;;;;13.02;2.47;;;;;;;10.04;86.16;100847.22;4963730;28;20097;-44
2022/11/26 00:52:52;;;;;;;11.82;3.13;;;;;;;10.01;85.97;100843.19;4970845;28;20050;-45
2022/11/26 00:55:24;;;;;;;12.43;2.67;;;;;;;10.03;85.78;100853.94;4970410;28;20063;-45
2022/11/26 00:57:51;;;;;;;9.07;2.25;;;;;;;10.06;86.06;100851.28;4968987;28;20535;-45
2022/11/26 01:00:21;;;;;;;9.23;2.08;;;;;;;10.07;85.88;100839.06;4952816;28;20077;-49
2022/11/26 01:02:51;;;;;;;13.82;2.42;;;;;;;10.10;85.86;100834.81;4967383;28;20089;-45
2022/11/26 01:05:19;;;;;;;15.73;3.47;;;;;;;10.13;85.86;100821.16;4968101;28;20039;-45
2022/11/26 01:07:46;;;;;;;18.25;2.25;;;;;;;10.15;85.62;100827.16;4959049;28;20042;-48
2022/11/26 01:10:17;;;;;;;9.35;1.85;;;;;;;10.17;85.36;100824.84;4970382;28;20519;-45
2022/11/26 01:12:43;;;;;;;8.00;2.00;;;;;;;10.20;85.38;100832.47;4970182;28;20080;-45
2022/11/26 01:15:12;;;;;;;13.57;3.00;;;;;;;10.21;85.50;100839.63;4969982;28;20043;-45
2022/11/26 01:17:39;;;;;;;10.10;2.58;;;;;;;10.20;85.36;100838.00;4969917;28;20489;-45
2022/11/26 01:20:29;;;;;;;11.93;2.17;;;;;;;10.20;85.33;100818.63;4969966;28;20047;-45
2022/11/26 01:22:57;;;;;;;14.18;2.83;;;;;;;10.20;85.34;100828.88;4969987;28;20046;-49
2022/11/26 01:25:25;;;;;;;7.88;1.73;;;;;;;10.18;85.36;100820.94;4969674;28;20039;-45
2022/11/26 01:27:52;;;;;;;18.00;3.05;;;;;;;10.17;85.39;100819.31;4970186;28;20047;-44
2022/11/26 01:30:25;;;;;;;15.55;3.53;;;;;;;10.16;85.39;100814.94;4968589;28;20491;-45
2022/11/26 01:32:51;;;;;;;;;;;;;;;10.18;85.45;100807.13;4969174;28;20058;-45
2022/11/26 01:35:19;;;;;;;17.02;2.15;;;;;;;10.21;85.38;100809.19;4969121;28;20418;-46
2022/11/26 01:37:46;;;;;;;7.93;1.63;;;;;;;10.25;85.39;100823.16;4965973;28;20047;-52
2022/11/26 01:40:25;;;;;;;14.32;2.05;;;;;;;10.25;85.29;100817.59;4968107;28;20401;-45
2022/11/26 01:42:58;;;;;;;8.65;1.95;;;;;;;10.25;85.42;100820.38;4962107;28;20047;-45
2022/11/26 01:45:25;;;;;;;12.27;1.83;;;;;;;10.27;85.44;100809.81;4969536;28;20158;-45
2022/11/26 01:47:52;;;;;;;7.38;1.70;;;;;;;10.27;85.50;100810.59;4969511;28;20113;-44
2022/11/26 01:50:28;;;;;;;18.50;1.88;;;;;;;10.27;85.35;100805.06;4969205;28;20051;-45
2022/11/26 01:52:56;;;;;;;8.63;1.52;;;;;;;10.28;85.44;100798.38;4968039;28;20086;-48
2022/11/26 01:55:25;;;;;;;9.02;1.58;;;;;;;10.29;85.45;100796.41;4969470;28;20046;-45
2022/11/26 01:57:52;;;;;;;8.38;2.33;;;;;;;10.32;85.47;100796.56;4968536;28;20043;-45
2022/11/26 02:00:18;;;;;;;15.88;2.08;;;;;;;10.33;85.42;100798.16;4967861;28;20046;-45
2022/11/26 02:02:45;;;;;;;10.05;2.08;;;;;;;10.34;85.44;100788.72;4967287;28;20105;-45
2022/11/26 02:05:28;;;;;;;8.38;1.70;;;;;;;10.39;85.47;100815.34;4968900;28;20513;-46
2022/11/26 02:07:56;;;;;;;14.57;2.33;;;;;;;10.39;85.34;100802.31;4967579;28;20038;-45
2022/11/26 02:10:22;;;;;;;10.15;1.75;;;;;;;10.43;85.41;100796.94;4968962;28;20058;-46
2022/11/26 02:12:50;;;;;;;8.25;2.17;;;;;;;10.48;85.38;100815.25;4968903;28;20448;-52
2022/11/26 02:15:17;;;;;;;5.70;1.38;;;;;;;10.49;85.42;100805.78;4967845;28;20054;-45
2022/11/26 02:17:51;;;;;;;11.90;1.58;;;;;;;10.48;85.46;100809.72;4971111;28;20042;-45
2022/11/26 02:20:33;;;;;;;3.78;1.00;;;;;;;10.45;85.63;100794.63;4968936;28;20047;-45
2022/11/26 02:23:17;;;;;;;6.20;1.30;;;;;;;10.43;85.57;100788.63;4968802;28;20656;-45
2022/11/26 02:26:02;;;;;;;11.05;1.23;;;;;;;10.40;85.93;100790.09;4959930;28;20049;-45
2022/11/26 02:28:55;;;;;;;7.38;1.35;;;;;;;10.39;86.00;100784.91;4968774;28;20051;-44
2022/11/26 02:31:46;;;;;;;8.10;1.45;;;;;;;10.37;85.99;100782.50;4965267;28;20047;-45
2022/11/26 02:34:16;;;;;;;8.60;1.02;;;;;;;10.36;86.12;100783.63;4968952;28;20074;-45
2022/11/26 02:37:04;;;;;;;4.45;1.13;;;;;;;10.36;86.13;100782.81;4969136;28;20129;-47
2022/11/26 02:39:31;;;;;;;6.63;1.17;;;;;;;10.32;86.37;100779.94;4969103;28;20057;-46
2022/11/26 02:42:02;;;;;;;8.23;1.38;;;;;;;10.32;86.20;100781.91;4968651;28;20093;-44
2022/11/26 02:44:38;;;;;;;6.63;2.03;;;;;;;10.30;86.55;100770.34;4967931;28;20058;-45
2022/11/26 02:47:10;;;;;;;9.38;1.55;;;;;;;10.27;86.71;100766.31;4968954;28;20054;-45
2022/11/26 02:49:39;;;;;;;8.68;1.05;;;;;;;10.27;86.69;100760.78;4967162;28;20489;-45
2022/11/26 02:52:07;;;;;;;8.90;1.77;;;;;;;10.31;86.79;100770.03;4968835;28;20396;-45
2022/11/26 02:54:35;;;;;;;12.60;2.65;;;;;;;10.34;86.71;100771.28;4973998;28;20413;-45
2022/11/26 02:57:06;;;;;;;11.90;2.42;;;;;;;10.36;86.82;100769.00;4968604;28;20055;-45
2022/11/26 02:59:34;;;;;;;7.53;1.27;;;;;;;10.36;86.64;100755.97;4950799;28;20493;-45
2022/11/26 03:02:15;;;;;;;10.73;1.77;;;;;;;10.37;86.78;100752.06;4981850;23;20056;-47
2022/11/26 03:04:48;;;;;;;9.52;1.67;;;;;;;10.38;86.77;100747.31;4912744;29;20501;-45
2022/11/26 03:07:17;;;;;;;23.80;4.10;;;;;;;10.40;86.70;100742.25;4929543;29;20047;-45
2022/11/26 03:09:56;;;;;;;12.65;1.80;;;;;;;10.43;86.65;100729.69;4929776;29;20524;-45
2022/11/26 03:12:23;;;;;;;10.52;2.97;;;;;;;10.45;86.57;100738.44;4930041;29;20106;-44
2022/11/26 03:14:50;;;;;;;9.15;2.10;;;;;;;10.46;86.42;100751.16;4929010;29;20384;-47
2022/11/26 03:17:17;;;;;;;14.73;2.45;;;;;;;10.45;86.45;100744.78;4928831;29;20482;-45
2022/11/26 03:19:45;;;;;;;12.90;1.80;;;;;;;10.48;86.40;100732.22;4929563;29;20520;-45
2022/11/26 03:22:12;;;;;;;9.73;2.55;;;;;;;10.47;86.24;100725.88;4929831;29;20058;-45
2022/11/26 03:24:40;;;;;;;12.73;2.72;;;;;;;10.45;86.55;100722.66;4928418;29;20059;-45
2022/11/26 03:27:07;;;;;;;14.00;2.03;;;;;;;10.46;86.44;100707.66;4929047;29;20048;-45
2022/11/26 03:29:33;;;;;;;5.85;1.42;;;;;;;10.51;86.13;100724.03;4929371;29;20048;-45
2022/11/26 03:32:00;;;;;;;12.35;1.98;;;;;;;10.54;86.04;100714.25;4929784;29;20047;-45
2022/11/26 03:34:26;;;;;;;12.68;1.85;;;;;;;10.56;86.00;100700.88;4929318;29;20531;-44
2022/11/26 03:36:53;;;;;;;10.40;1.88;;;;;;;10.60;85.76;100699.00;4929453;29;20078;-45
2022/11/26 03:39:20;;;;;;;8.82;2.00;;;;;;;10.61;85.74;100695.09;4929202;29;20151;-45
2022/11/26 03:41:46;;;;;;;14.07;3.00;;;;;;;10.61;85.67;100697.84;4929213;29;20450;-46
2022/11/26 03:44:13;;;;;;;9.98;2.40;;;;;;;10.62;85.48;100699.47;4928914;29;20091;-45
2022/11/26 03:46:40;;;;;;;12.57;2.38;;;;;;;10.63;85.46;100695.53;4928780;29;20047;-45
2022/11/26 03:49:07;;;;;;;12.25;2.78;;;;;;;10.63;85.68;100687.25;4929430;29;20056;-45
2022/11/26 03:51:34;;;;;;;14.07;2.40;;;;;;;10.61;85.54;100697.84;4929375;29;20048;-45
2022/11/26 03:54:01;;;;;;;14.68;2.97;;;;;;;10.60;85.70;100688.75;4929369;29;20127;-46
2022/11/26 03:56:27;;;;;;;9.02;1.98;;;;;;;10.59;85.74;100694.63;4931712;29;20073;-44
2022/11/26 03:58:54;;;;;;;13.80;2.35;;;;;;;10.57;85.99;100691.38;4933304;29;20051;-45
2022/11/26 04:01:21;;;;;;;15.05;3.30;;;;;;;10.55;86.03;100702.81;4932733;29;20600;-45
2022/11/26 04:03:48;;;;;;;12.48;2.50;;;;;;;10.55;86.15;100688.16;4931823;29;20055;-45
2022/11/26 04:06:15;;;;;;;13.02;2.70;;;;;;;10.53;86.21;100699.59;4925706;29;20127;-46
2022/11/26 04:08:42;;;;;;;13.20;2.97;;;;;;;10.52;86.47;100691.63;4932828;29;20114;-45
2022/11/26 04:11:09;;;;;;;14.38;2.92;;;;;;;10.49;86.49;100690.34;4932946;29;20454;-47
2022/11/26 04:13:36;;;;;;;21.75;4.03;;;;;;;10.48;86.52;100687.94;4932755;29;20052;-51
2022/11/26 04:16:02;;;;;;;6.85;1.92;;;;;;;10.46;86.72;100660.59;4932139;29;20047;-47
2022/11/26 04:18:29;;;;;;;12.10;2.13;;;;;;;10.47;86.72;100667.75;4932099;29;20454;-51
2022/11/26 04:20:55;;;;;;;6.03;1.30;;;;;;;10.45;86.84;100666.47;4932614;29;20081;-49
2022/11/26 04:23:23;;;;;;;7.60;2.25;;;;;;;10.46;86.94;100663.34;4932535;29;20043;-46
2022/11/26 04:25:50;;;;;;;8.20;1.60;;;;;;;10.48;87.04;100676.88;4932015;29;20398;-47
2022/11/26 04:28:17;;;;;;;7.07;1.55;;;;;;;10.51;87.03;100665.91;4932618;29;20584;-51
2022/11/26 04:30:44;;;;;;;3.25;1.05;;;;;;;10.55;86.95;100654.94;4932460;29;20446;-48
2022/11/26 04:33:10;;;;;;;8.82;1.40;;;;;;;10.56;87.00;100656.56;4915406;29;20055;-47
2022/11/26 04:35:37;;;;;;;9.23;1.13;;;;;;;10.58;87.11;100657.03;4932531;29;20040;-49
2022/11/26 04:38:04;;;;;;;7.60;1.40;;;;;;;10.56;87.36;100651.03;4932069;29;20099;-46
2022/11/26 04:40:31;;;;;;;8.07;1.33;;;;;;;10.56;87.35;100648.25;4932367;29;20048;-47
2022/11/26 04:42:58;;;;;;;8.27;1.20;;;;;;;10.55;87.45;100641.91;4932235;29;20083;-47
2022/11/26 04:45:25;;;;;;;13.55;1.98;;;;;;;10.56;87.48;100646.31;4931340;29;20113;-47
2022/11/26 04:47:52;;;;;;;9.70;1.45;;;;;;;10.58;87.61;100640.41;4932101;29;20134;-49
2022/11/26 04:50:19;;;;;;;8.95;1.85;;;;;;;10.57;87.58;100642.38;4932233;29;20043;-47
2022/11/26 04:52:47;;;;;;;6.15;1.20;;;;;;;10.56;87.76;100642.72;4915433;29;20044;-52
2022/11/26 04:55:15;;;;;;;5.47;1.30;;;;;;;10.55;87.96;100643.88;4932432;29;20513;-47
2022/11/26 04:57:42;;;;;;;7.43;1.95;;;;;;;10.56;88.25;100651.03;4932281;29;20103;-46
2022/11/26 05:00:10;;;;;;;5.05;1.23;;;;;;;10.55;88.29;100649.41;4931219;29;20052;-47
2022/11/26 05:02:37;;;;;;;2.28;1.05;;;;;;;10.56;88.31;100653.81;4930180;29;20446;-48
2022/11/26 05:05:04;;;;;;;10.82;1.25;;;;;;;10.55;88.55;100650.22;4932000;29;20116;-47
2022/11/26 05:07:30;;;;;;;4.45;1.45;;;;;;;10.56;88.52;100645.50;4931682;29;20051;-47
2022/11/26 05:09:57;;;;;;;8.05;2.03;;;;;;;10.55;88.59;100630.03;4932316;29;20079;-46
2022/11/26 05:12:24;;;;;;;8.90;1.13;;;;;;;10.52;88.78;100628.75;4932319;29;20083;-46
2022/11/26 05:14:51;;;;;;;11.30;1.17;;;;;;;10.52;89.12;100623.22;4931991;29;20047;-49
2022/11/26 05:17:18;;;;;;;2.13;0.77;;;;;;;10.50;89.16;100613.66;4931882;29;20047;-46
2022/11/26 05:19:44;;;;;;;6.15;0.80;;;;;;;10.49;89.39;100612.03;4932360;29;20056;-46
2022/11/26 05:22:11;;;;;;;4.03;0.50;;;;;;;10.48;89.51;100613.22;4914800;29;20051;-48
2022/11/26 05:24:38;;;;;;;4.10;0.60;;;;;;;10.49;89.72;100612.03;4921447;29;20058;-46
2022/11/26 05:27:05;;;;;;;3.45;0.75;;;;;;;10.49;89.79;100607.31;4920266;29;20071;-46
2022/11/26 05:29:32;;;;;;;3.78;0.70;;;;;;;10.50;89.76;100599.81;4931757;29;20052;-46
2022/11/26 05:31:58;;;;;;;0.88;0.47;;;;;;;10.49;89.99;100590.72;4931004;29;20047;-48
2022/11/26 05:34:26;;;;;;;4.50;0.47;;;;;;;10.50;90.04;100597.06;4931401;29;20134;-51
2022/11/26 05:36:53;;;;;;;1.50;0.70;;;;;;;10.49;90.20;100585.16;4931715;29;20546;-50
2022/11/26 05:39:19;;;;;;;3.10;0.75;;;;;;;10.47;90.27;100587.50;4914266;29;20043;-46
2022/11/26 05:41:46;;;;;;;10.13;1.10;;;;;;;10.47;90.57;100592.22;4931057;29;20434;-46
2022/11/26 05:44:13;;;;;;;6.45;1.33;;;;;;;10.45;90.75;100597.28;4931350;29;20051;-46
2022/11/26 05:46:41;;;;;;;5.43;0.93;;;;;;;10.42;91.08;100590.50;4931280;29;20058;-46
2022/11/26 05:49:08;;;;;;;8.55;1.10;;;;;;;10.38;91.16;100587.59;4930987;29;20134;-46
2022/11/26 05:51:35;;;;;;;6.60;1.60;;;;;;;10.36;91.37;100589.09;4931351;29;20062;-47
2022/11/26 05:54:02;;;;;;;8.88;1.20;;;;;;;10.35;91.68;100580.00;4931077;29;20462;-44
2022/11/26 05:56:29;;;;;;;5.53;1.20;;;;;;;10.33;92.03;100570.44;4931237;29;20132;-44
2022/11/26 05:58:56;;;;;;;3.53;0.93;;;;;;;10.32;92.20;100569.66;4930888;29;20071;-46
2022/11/26 06:01:22;;;;;;;3.60;0.60;;;;;;;10.30;92.45;100565.59;4929740;29;20576;-46
2022/11/26 06:03:49;;;;;;;5.43;0.73;;;;;;;10.28;92.49;100560.41;4930385;29;20047;-49
2022/11/26 06:06:16;;;;;;;5.30;0.80;;;;;;;10.26;92.70;100559.97;4930385;29;20052;-47
2022/11/26 06:08:43;;;;;;;3.85;0.70;;;;;;;10.26;92.83;100548.06;4931401;29;20380;-46
2022/11/26 06:11:13;;;;;;;1.50;0.68;;;;;;;10.25;93.05;100541.72;4930645;29;20474;-47
2022/11/26 06:13:39;;;;;;;2.10;0.63;;;;;;;10.26;93.31;100542.53;4930666;29;20059;-49
2022/11/26 06:16:07;;;;;;;4.00;1.05;;;;;;;10.26;93.31;100548.91;4930645;29;20043;-46
2022/11/26 06:18:38;;;;;;;4.18;0.60;;;;;;;10.26;93.55;100554.44;4930535;29;20506;-44
2022/11/26 06:21:06;;;;;;;5.82;1.10;;;;;;;10.26;94.08;100548.91;4930327;29;20111;-44
2022/11/26 06:23:33;;;;;;;9.73;1.00;;;;;;;10.27;93.88;100538.63;4929703;29;20082;-46
2022/11/26 06:26:00;;;;;;;5.65;0.75;;;;;;;10.28;93.98;100523.63;4930499;29;20052;-47
2022/11/26 06:28:27;;;;;;;2.85;0.77;;;;;;;10.28;94.10;100524.44;4913852;29;20054;-47
2022/11/26 06:30:53;;;;;;;1.83;0.75;;;;;;;10.28;94.32;100529.97;4929793;29;20147;-47
2022/11/26 06:33:20;;;;;;;3.97;0.88;;;;;;;10.27;94.47;100520.06;4930020;29;20047;-47
2022/11/26 06:35:46;;;;;;;4.78;0.80;;;;;;;10.28;94.62;100518.09;4930364;29;20643;-47
2022/11/26 06:38:13;;;;;;;1.88;0.55;;;;;;;10.28;94.89;100510.59;4930676;29;20059;-46
2022/11/26 06:40:40;;;;;;;5.00;0.70;;;;;;;10.31;94.92;100509.09;4913119;29;20075;-46
2022/11/26 06:43:07;;;;;;;5.20;1.00;;;;;;;10.31;94.92;100501.63;4930022;29;20071;-50
2022/11/26 06:45:35;;;;;;;8.68;1.20;;;;;;;10.33;95.02;100498.47;4930045;29;20114;-46
2022/11/26 06:48:01;;;;;;;4.90;1.40;;;;;;;10.39;95.05;100492.38;4930252;29;20076;-46
2022/11/26 06:50:28;;;;;;;9.75;1.35;;;;;;;10.43;95.04;100486.13;4930174;29;20048;-47
2022/11/26 06:52:55;;;;;;;6.93;1.55;;;;;;;10.51;94.97;100485.19;4930049;29;20063;-47
2022/11/26 06:55:21;;;;;;;13.10;2.10;;;;;;;10.58;94.82;100482.63;4929955;29;20047;-46
2022/11/26 06:57:50;;;;;;;11.40;2.15;;;;;;;10.63;94.95;100474.06;4929874;29;20047;-52
2022/11/26 07:00:17;;;;;;;10.88;2.25;;;;;;;10.67;94.51;100470.22;4929118;29;20056;-54
2022/11/26 07:02:44;;;;;;;12.35;2.83;;;;;;;10.73;94.42;100484.63;4928846;29;20052;-47
2022/11/26 07:05:11;;;;;;;12.25;2.05;;;;;;;10.78;94.22;100495.44;4929611;29;20078;-47
2022/11/26 07:07:38;;;;;;;22.35;5.10;;;;;;;10.82;94.19;100491.66;4929671;29;20055;-46
2022/11/26 07:10:06;;;;;;;17.90;2.53;;;;;;;10.84;93.94;100491.28;4929957;29;20062;-46
2022/11/26 07:12:33;;;;;;;11.43;2.03;;;;;;;10.88;93.74;100486.66;4929377;29;20521;-47
2022/11/26 07:15:00;;;;;;;17.45;3.35;;;;;;;10.90;93.66;100471.31;4929531;29;20039;-48
2022/11/26 07:17:28;;;;;;;11.55;2.47;;;;;;;10.94;93.51;100474.16;4929810;29;20398;-47
2022/11/26 07:19:55;;;;;;;16.55;3.65;;;;;;;10.96;93.38;100460.78;4929550;29;20051;-46
2022/11/26 07:22:21;;;;;;;12.20;2.17;;;;;;;10.98;93.09;100458.44;4929364;29;20067;-48
2022/11/26 07:24:48;;;;;;;14.07;2.30;;;;;;;11.02;92.86;100464.88;4929389;29;20055;-46
2022/11/26 07:27:15;;;;;;;17.70;2.22;;;;;;;11.04;92.63;100459.78;4929363;29;20047;-47
2022/11/26 07:29:41;;;;;;;12.40;3.13;;;;;;;11.06;92.50;100467.75;4928335;29;20044;-47
2022/11/26 07:32:08;;;;;;;9.98;2.58;;;;;;;11.06;92.54;100451.94;4927421;29;20454;-47
2022/11/26 07:34:35;;;;;;;14.90;2.30;;;;;;;11.07;92.65;100450.75;4928971;29;20051;-46
2022/11/26 07:37:02;;;;;;;12.38;2.05;;;;;;;11.08;92.36;100446.84;4929684;29;20036;-47
2022/11/26 07:39:29;;;;;;;12.77;2.60;;;;;;;11.07;92.28;100433.34;4928755;29;20051;-46
2022/11/26 07:41:55;;;;;;;18.90;3.45;;;;;;;11.07;92.14;100430.59;4927443;29;20514;-46
2022/11/26 07:44:22;;;;;;;8.93;1.70;;;;;;;11.06;92.20;100443.63;4929229;29;20063;-46
2022/11/26 07:46:49;;;;;;;8.95;2.33;;;;;;;11.10;91.92;100438.97;4929296;29;20095;-47
2022/11/26 07:49:15;;;;;;;9.85;1.92;;;;;;;11.15;91.75;100433.16;4929490;29;20431;-46
2022/11/26 07:51:42;;;;;;;10.25;1.77;;;;;;;11.16;91.64;100423.69;4929408;29;20089;-46
2022/11/26 07:54:09;;;;;;;15.27;3.38;;;;;;;11.17;91.66;100433.63;4929120;29;20577;-46
2022/11/26 07:56:36;;;;;;;9.15;2.00;;;;;;;11.18;91.58;100420.56;4929787;29;20406;-46
2022/11/26 07:59:03;;;;;;;14.32;2.28;;;;;;;11.17;91.29;100418.97;4929179;29;20058;-47
2022/11/26 08:01:31;;;;;;;9.57;1.75;;;;;;;11.15;91.24;100424.84;4929348;29;20055;-46
2022/11/26 08:03:59;;;;;;;12.90;2.25;;;;;;;11.15;91.34;100427.63;4929259;29;20083;-47
2022/11/26 08:06:28;;;;;;;15.85;2.63;;;;;;;11.17;91.30;100416.19;4928381;29;20047;-50
2022/11/26 08:08:57;;;;;;;9.70;1.98;;;;;;;11.19;91.29;100411.09;4911775;29;20465;-47
2022/11/26 08:11:26;;;;;;;8.35;1.85;;;;;;;11.23;91.22;100414.75;4929345;29;20450;-49
2022/11/26 08:13:55;;;;;;;10.13;1.63;;;;;;;11.26;90.93;100419.56;4929141;29;20048;-46
2022/11/26 08:16:22;;;;;;;7.75;2.13;;;;;;;11.26;90.99;100425.13;4929176;29;20573;-46
2022/11/26 08:19:07;;;;;;;6.15;1.38;;;;;;;11.28;90.86;100415.28;4929376;29;20079;-46
2022/11/26 08:21:34;;;;;;;5.60;1.27;;;;;;;11.29;90.89;100408.59;4929202;29;20075;-46
2022/11/26 08:24:02;;;;;;;6.88;1.63;;;;;;;11.30;90.94;100415.75;4929071;29;20051;-46
2022/11/26 08:26:29;;;;;;;4.18;1.10;;;;;;;11.33;90.42;100420.56;4929680;29;20057;-46
2022/11/26 08:29:04;;;;;;;7.47;1.20;;;;;;;11.37;90.41;100413.16;4929705;29;20044;-46
2022/11/26 08:31:30;;;;;;;9.68;1.40;;;;;;;11.39;90.16;100408.03;4929562;29;20048;-46
2022/11/26 08:33:59;;;;;;;7.05;1.30;;;;;;;11.40;90.11;100409.66;4912358;29;20055;-46
2022/11/26 08:36:27;;;;;;;4.85;0.90;;;;;;;11.40;90.00;100412.44;4929069;29;20047;-46
2022/11/26 08:38:54;;;;;;;6.88;1.90;;;;;;;11.40;90.04;100406.91;4929232;29;20110;-46
2022/11/26 08:41:22;;;;;;;6.63;1.13;;;;;;;11.42;89.73;100401.78;4927273;29;20047;-47
2022/11/26 08:43:49;;;;;;;3.70;0.98;;;;;;;11.42;89.63;100410.09;4932166;29;20061;-46
2022/11/26 08:46:39;;;;;;;1.50;0.70;;;;;;;11.45;89.43;100401.06;4932286;29;20083;-46
2022/11/26 08:49:10;;;;;;;4.75;0.90;;;;;;;11.49;89.29;100385.31;4932551;29;20048;-51
2022/11/26 08:51:37;;;;;;;2.78;0.73;;;;;;;11.51;89.37;100388.56;4932473;29;20059;-46
2022/11/26 08:54:04;;;;;;;3.05;1.00;;;;;;;11.55;88.84;100391.41;4932498;29;20039;-47
2022/11/26 08:56:31;;;;;;;3.08;0.73;;;;;;;11.55;88.76;100400.53;4931855;29;20414;-46
2022/11/26 08:58:58;;;;;;;7.95;0.95;;;;;;;11.58;88.52;100388.72;4931887;29;20059;-47
2022/11/26 09:01:31;;;;;;;5.88;1.30;;;;;;;11.60;88.48;100391.91;4931989;29;20127;-50
2022/11/26 09:03:59;;;;;;;2.50;0.70;;;;;;;11.61;88.51;100382.44;4915031;29;20079;-46
2022/11/26 09:06:28;;;;;;;3.58;0.70;;;;;;;11.64;88.42;100383.69;4930954;29;20044;-46
2022/11/26 09:09:13;;;;;;;3.60;1.02;;;;;;;11.66;88.14;100377.78;4931457;29;20052;-47
2022/11/26 09:11:53;;;;;;;3.65;1.20;;;;;;;11.67;88.38;100371.06;4919563;29;20047;-47
2022/11/26 09:14:23;;;;;;;2.53;0.20;;;;;;;11.66;88.09;100366.69;4929407;29;20048;-46
2022/11/26 09:16:51;;;;;;;1.00;0.65;;;;;;;11.69;87.85;100371.53;4931056;29;20047;-46
2022/11/26 09:19:18;;;;;;;1.77;0.43;;;;;;;11.71;87.87;100369.19;4931544;29;20062;-46
2022/11/26 09:21:46;;;;;;;2.65;0.93;;;;;;;11.75;87.80;100373.69;4931712;29;20196;-52
2022/11/26 09:24:13;;;;;;;7.07;0.90;;;;;;;11.77;87.66;100368.56;4931952;29;20055;-46
2022/11/26 09:26:39;;;;;;;5.55;1.02;;;;;;;11.77;87.62;100373.31;4931420;29;20047;-46
2022/11/26 09:29:07;;;;;;;5.07;0.80;;;;;;;11.79;87.26;100379.28;4930928;29;20051;-46
2022/11/26 09:31:33;;;;;;;7.85;1.13;;;;;;;11.79;87.44;100373.75;4930997;29;20469;-52
2022/11/26 09:34:01;;;;;;;3.33;0.98;;;;;;;11.78;87.39;100383.25;4931638;29;20048;-46
2022/11/26 09:36:28;;;;;;;4.80;1.02;;;;;;;11.75;87.60;100387.56;4930003;29;20067;-45
2022/11/26 09:38:56;;;;;;;6.43;1.25;;;;;;;11.76;87.52;100378.06;4930343;29;20118;-46
2022/11/26 09:41:26;;;;;;;4.88;0.88;;;;;;;11.78;87.63;100386.03;4914120;29;20058;-46
2022/11/26 09:44:01;;;;;;;6.53;0.93;;;;;;;11.79;87.47;100376.53;4918042;29;20157;-52
2022/11/26 09:47:10;;;;;;;3.80;1.10;;;;;;;11.82;87.51;100362.75;4929934;29;20044;-51
2022/11/26 09:49:57;;;;;;;5.75;1.63;;;;;;;11.84;87.36;100362.38;4923747;29;20051;-50
2022/11/26 09:52:29;;;;;;;5.80;1.13;;;;;;;11.83;87.27;100356.03;4918051;29;20099;-46
2022/11/26 09:55:04;;;;;;;4.63;1.10;;;;;;;11.84;87.02;100354.03;4931180;29;20067;-46
2022/11/26 09:57:40;;;;;;;9.55;1.98;;;;;;;11.84;87.18;100352.09;4930960;29;20048;-46
2022/11/26 10:00:21;;;;;;;3.08;1.08;;;;;;;11.85;87.25;100344.56;4931142;29;20305;-47
2022/11/26 10:02:51;;;;;;;1.70;0.60;;;;;;;11.88;87.29;100341.06;4928309;29;20070;-46
2022/11/26 10:05:20;;;;;;;8.30;1.05;;;;;;;11.86;87.31;100337.88;4927369;29;20095;-46
2022/11/26 10:08:03;;;;;;;2.67;0.80;;;;;;;11.87;87.17;100336.69;4927976;29;20138;-46
2022/11/26 10:10:43;;;;;;;7.25;1.17;;;;;;;11.90;87.25;100322.09;4930686;29;20490;-46
2022/11/26 10:13:21;;;;;;;2.45;0.55;;;;;;;11.89;87.20;100323.25;4930481;29;20050;-46
2022/11/26 10:16:18;;;;;;;5.22;0.85;;;;;;;11.92;87.33;100328.06;4930894;29;20063;-52
2022/11/26 10:19:06;;;;;;;2.78;0.82;;;;;;;11.93;87.23;100313.03;4920915;29;20418;-48
2022/11/26 10:21:40;;;;;;;2.17;1.02;;;;;;;11.95;87.19;100299.59;4930289;29;20486;-49
2022/11/26 10:24:35;;;;;;;1.35;0.50;;;;;;;11.98;87.32;100308.00;4930177;29;20157;-48
2022/11/26 10:27:11;;;;;;;4.57;0.75;;;;;;;12.00;87.19;100310.41;4930803;29;20059;-47
2022/11/26 10:29:42;;;;;;;5.07;1.23;;;;;;;12.02;87.19;100302.53;4930566;29;20051;-46
2022/11/26 10:32:26;;;;;;;2.40;0.55;;;;;;;12.04;87.18;100316.84;4929685;29;20039;-46
2022/11/26 10:34:56;;;;;;;3.75;0.40;;;;;;;12.01;87.16;100312.84;4912678;29;20050;-47
2022/11/26 10:37:25;;;;;;;2.25;0.45;;;;;;;12.02;87.32;100302.53;4930198;29;20052;-46
2022/11/26 10:40:10;;;;;;;6.07;0.60;;;;;;;12.01;87.36;100307.28;4929278;29;20402;-46
2022/11/26 10:42:42;;;;;;;3.42;0.90;;;;;;;12.03;87.30;100315.22;4930690;29;20040;-46
2022/11/26 10:45:23;;;;;;;4.53;0.70;;;;;;;12.04;87.33;100311.28;4930276;29;20087;-48
2022/11/26 10:47:50;;;;;;;5.30;1.65;;;;;;;12.06;87.42;100308.94;4930443;29;20545;-49
2022/11/26 10:50:23;;;;;;;1.80;0.40;;;;;;;12.09;87.30;100313.78;4929932;29;20505;-46
2022/11/26 10:53:20;;;;;;;1.95;0.60;;;;;;;12.12;87.28;100308.31;4930068;29;20147;-46
2022/11/26 10:55:47;;;;;;;2.90;0.52;;;;;;;12.13;87.12;100297.97;4929764;29;20047;-51
2022/11/26 10:58:30;;;;;;;3.65;0.40;;;;;;;12.15;87.03;100287.34;4930231;29;20500;-46
2022/11/26 11:00:58;;;;;;;;;;;;;;;12.15;86.93;100290.13;4928203;29;21317;-46
2022/11/26 11:03:33;;;;;;;3.38;0.43;;;;;;;12.16;86.92;100292.50;4929840;29;19923;-46
2022/11/26 11:06:20;;;;;;;0.68;0.30;;;;;;;12.17;86.88;100296.09;4928704;29;20496;-48
2022/11/26 11:08:49;;;;;;;2.50;0.28;;;;;;;12.19;86.90;100289.00;4929351;29;20071;-48
2022/11/26 11:11:28;;;;;;;2.35;0.63;;;;;;;12.21;86.73;100285.84;4929170;29;20516;-46
2022/11/26 11:13:55;;;;;;;2.15;0.52;;;;;;;12.23;86.65;100281.53;4929694;29;20056;-46
2022/11/26 11:16:27;;;;;;;0.85;0.47;;;;;;;12.27;86.80;100270.50;4929740;29;20039;-46
2022/11/26 11:18:59;;;;;;;;;;;;;;;12.30;86.16;100260.66;4913421;29;20058;-46
2022/11/26 11:21:33;;;;;;;2.55;0.60;;;;;;;12.33;85.99;100262.69;4929855;29;19930;-48
2022/11/26 11:24:19;;;;;;;1.65;0.32;;;;;;;12.34;85.79;100265.09;4929812;29;20056;-49
2022/11/26 11:26:48;;;;;;;1.27;0.30;;;;;;;12.33;85.92;100263.50;4929940;29;20736;-46
2022/11/26 11:29:29;;;;;;;1.48;0.50;;;;;;;12.34;85.89;100256.75;4929572;29;20062;-46
2022/11/26 11:31:56;;;;;;;2.70;0.30;;;;;;;12.33;85.60;100260.72;4928937;29;20051;-49
2022/11/26 11:34:31;;;;;;;1.95;0.40;;;;;;;12.34;85.56;100264.31;4929658;29;20047;-50
2022/11/26 11:37:02;;;;;;;2.35;0.50;;;;;;;12.32;85.68;100250.78;4929804;29;20052;-46